createdAt,value
2023-01-02T00:01:36.062Z,10.04
2023-01-02T00:04:38.674Z,9.96
2023-01-02T00:07:48.022Z,10.03
2023-01-02T00:10:53.008Z,9.96
2023-01-02T00:13:55.923Z,9.80
2023-01-02T00:16:58.637Z,9.83
2023-01-02T00:20:01.857Z,10.01
2023-01-02T00:23:07.116Z,10.07
2023-01-02T00:26:14.186Z,9.99
2023-01-02T00:29:16.806Z,10.05
2023-01-02T00:32:19.506Z,9.88
2023-01-02T00:35:22.190Z,9.85
2023-01-02T00:38:26.295Z,9.89
2023-01-02T00:41:29.023Z,9.93
2023-01-02T00:44:32.052Z,9.97
2023-01-02T00:47:37.018Z,10.02
2023-01-02T00:50:39.720Z,10.06
2023-01-02T00:53:49.757Z,10.03
2023-01-02T00:56:52.397Z,10.02
2023-01-02T00:59:55.051Z,9.98
2023-01-02T01:02:58.377Z,9.98
2023-01-02T01:06:06.347Z,9.87
2023-01-02T01:09:13.458Z,9.84
2023-01-02T01:12:16.099Z,9.81
2023-01-02T01:15:18.862Z,9.76
2023-01-02T01:18:21.484Z,9.72
2023-01-02T01:21:24.810Z,9.86
2023-01-02T01:24:28.976Z,9.86
2023-01-02T01:27:31.667Z,9.83
2023-01-02T01:30:37.380Z,9.87
2023-01-02T01:33:42.145Z,9.83
2023-01-02T01:36:44.819Z,9.88
2023-01-02T01:39:52.689Z,9.90
2023-01-02T01:43:01.043Z,9.83
2023-01-02T01:46:07.685Z,9.86
2023-01-02T01:49:14.830Z,9.85
2023-01-02T01:52:23.256Z,9.84
2023-01-02T01:55:32.558Z,9.75
2023-01-02T01:58:39.350Z,9.82
2023-01-02T02:01:43.536Z,9.77
2023-01-02T02:04:49.247Z,9.74
2023-01-02T02:08:01.974Z,9.70
2023-01-02T02:11:07.028Z,9.64
2023-01-02T02:14:09.694Z,9.53
2023-01-02T02:17:24.091Z,9.47
2023-01-02T02:20:34.502Z,9.82
2023-01-02T02:24:08.776Z,9.64
2023-01-02T02:27:51.578Z,9.69
2023-01-02T02:30:58.526Z,9.70
2023-01-02T02:34:10.701Z,9.62
2023-01-02T02:37:25.169Z,9.60
2023-01-02T02:40:36.827Z,9.65
2023-01-02T02:43:52.411Z,9.68
2023-01-02T02:47:02.524Z,9.63
2023-01-02T02:50:11.172Z,9.70
2023-01-02T02:53:20.357Z,9.74
2023-01-02T02:56:25.999Z,9.67
2023-01-02T02:59:29.598Z,9.65
2023-01-02T03:02:34.355Z,9.63
2023-01-02T03:05:41.776Z,9.64
2023-01-02T03:08:59.383Z,9.66
2023-01-02T03:12:12.121Z,9.72
2023-01-02T03:15:24.563Z,9.60
2023-01-02T03:18:35.496Z,9.72
2023-01-02T03:21:42.378Z,9.83
2023-01-02T03:24:47.710Z,9.74
2023-01-02T03:27:58.880Z,9.64
2023-01-02T03:31:03.979Z,9.65
2023-01-02T03:34:14.192Z,9.69
2023-01-02T03:37:22.977Z,9.71
2023-01-02T03:40:40.031Z,9.71
2023-01-02T03:43:50.106Z,9.68
2023-01-02T03:47:06.407Z,9.64
2023-01-02T03:50:16.483Z,9.56
2023-01-02T03:53:20.771Z,9.55
2023-01-02T03:56:30.807Z,9.51
2023-01-02T03:59:42.226Z,9.57
2023-01-02T04:02:50.643Z,9.70
2023-01-02T04:06:05.744Z,9.61
2023-01-02T04:09:11.449Z,9.66
2023-01-02T04:12:20.399Z,9.70
2023-01-02T04:15:25.069Z,9.62
2023-01-02T04:18:32.309Z,9.52
2023-01-02T04:21:39.673Z,9.57
2023-01-02T04:24:51.353Z,9.48
2023-01-02T04:28:00.296Z,9.30
2023-01-02T04:31:20.617Z,9.54
2023-01-02T04:34:24.809Z,9.60
2023-01-02T04:37:31.021Z,9.63
2023-01-02T04:40:37.625Z,9.73
2023-01-02T04:43:43.337Z,9.70
2023-01-02T04:46:46.012Z,9.76
2023-01-02T04:49:54.930Z,9.71
2023-01-02T04:52:58.946Z,9.59
2023-01-02T04:56:02.050Z,9.62
2023-01-02T04:59:04.775Z,9.64
2023-01-02T05:02:07.564Z,9.69
2023-01-02T05:05:11.636Z,9.58
2023-01-02T05:08:16.578Z,9.60
2023-01-02T05:11:22.490Z,9.49
2023-01-02T05:14:25.219Z,9.47
2023-01-02T05:17:27.924Z,9.32
2023-01-02T05:20:30.582Z,9.34
2023-01-02T05:23:50.330Z,9.44
2023-01-02T05:26:53.030Z,9.48
2023-01-02T05:29:55.706Z,9.37
2023-01-02T05:32:58.535Z,9.56
2023-01-02T05:36:01.232Z,9.44
2023-01-02T05:39:08.565Z,9.31
2023-01-02T05:42:11.255Z,9.29
2023-01-02T05:45:14.005Z,9.36
2023-01-02T05:48:16.754Z,9.29
2023-01-02T05:51:20.502Z,9.07
2023-01-02T05:54:24.712Z,9.25
2023-01-02T05:57:27.547Z,9.25
2023-01-02T06:00:30.523Z,9.13
2023-01-02T06:03:33.406Z,9.23
2023-01-02T06:06:38.200Z,9.11
2023-01-02T06:09:42.271Z,9.17
2023-01-02T06:12:45.011Z,9.06
2023-01-02T06:15:47.699Z,8.80
2023-01-02T06:18:50.804Z,9.14
2023-01-02T06:21:53.516Z,8.98
2023-01-02T06:24:57.597Z,9.08
2023-01-02T06:28:00.319Z,9.07
2023-01-02T06:31:05.738Z,9.05
2023-01-02T06:34:08.516Z,9.07
2023-01-02T06:37:11.568Z,9.12
2023-01-02T06:40:15.848Z,9.12
2023-01-02T06:43:18.563Z,9.07
2023-01-02T06:46:23.344Z,8.96
2023-01-02T06:49:26.059Z,8.85
2023-01-02T06:52:29.543Z,9.03
2023-01-02T06:55:33.613Z,8.65
2023-01-02T06:58:38.106Z,8.78
2023-01-02T07:01:41.221Z,8.98
2023-01-02T07:04:44.101Z,8.98
2023-01-02T07:07:47.022Z,8.69
2023-01-02T07:10:53.134Z,8.98
2023-01-02T07:13:56.474Z,8.99
2023-01-02T07:16:59.302Z,8.94
2023-01-02T07:20:02.804Z,8.92
2023-01-02T07:23:05.591Z,8.95
2023-01-02T07:26:10.500Z,8.89
2023-01-02T07:29:13.209Z,8.88
2023-01-02T07:32:17.453Z,8.87
2023-01-02T07:35:21.530Z,8.86
2023-01-02T07:38:24.218Z,8.75
2023-01-02T07:41:28.337Z,8.77
2023-01-02T07:44:31.010Z,8.77
2023-01-02T07:47:33.715Z,8.72
2023-01-02T07:50:36.503Z,8.67
2023-01-02T07:53:41.542Z,8.60
2023-01-02T07:56:45.794Z,8.70
2023-01-02T07:59:50.100Z,8.72
2023-01-02T08:02:55.241Z,8.71
2023-01-02T08:06:03.800Z,8.69
2023-01-02T08:09:06.593Z,8.72
2023-01-02T08:12:11.469Z,8.73
2023-01-02T08:15:14.227Z,8.74
2023-01-02T08:18:16.964Z,8.86
2023-01-02T08:21:19.842Z,8.88
2023-01-02T08:24:22.558Z,8.98
2023-01-02T08:27:26.603Z,8.97
2023-01-02T08:30:29.388Z,9.13
2023-01-02T08:33:32.041Z,9.15
2023-01-02T08:36:35.718Z,9.06
2023-01-02T08:39:38.425Z,9.27
2023-01-02T08:42:43.747Z,9.39
2023-01-02T08:45:46.481Z,9.43
2023-01-02T08:48:49.264Z,9.45
2023-01-02T08:51:51.979Z,9.53
2023-01-02T08:54:54.762Z,9.54
2023-01-02T08:57:58.772Z,9.39
2023-01-02T09:01:02.299Z,9.66
2023-01-02T09:04:12.015Z,9.73
2023-01-02T09:07:15.897Z,9.65
2023-01-02T09:10:18.609Z,9.84
2023-01-02T09:13:22.673Z,9.83
2023-01-02T09:16:25.564Z,9.84
2023-01-02T09:19:28.412Z,9.95
2023-01-02T09:22:31.138Z,10.09
2023-01-02T09:25:33.809Z,10.18
2023-01-02T09:28:38.183Z,9.92
2023-01-02T09:31:41.501Z,10.38
2023-01-02T09:34:50.246Z,10.50
2023-01-02T09:37:52.969Z,10.52
2023-01-02T09:40:56.346Z,10.56
2023-01-02T09:44:03.031Z,10.64
2023-01-02T09:47:09.207Z,10.74
2023-01-02T09:50:17.050Z,10.82
2023-01-02T09:53:19.823Z,10.96
2023-01-02T09:56:30.373Z,10.72
2023-01-02T09:59:47.927Z,11.13
2023-01-02T10:03:07.892Z,11.28
2023-01-02T10:06:16.195Z,11.50
2023-01-02T10:09:27.389Z,11.74
2023-01-02T10:12:37.340Z,12.01
2023-01-02T10:15:45.089Z,12.15
2023-01-02T10:18:52.556Z,12.59
2023-01-02T10:22:00.131Z,12.84
2023-01-02T10:25:07.998Z,13.04
2023-01-02T10:28:23.173Z,13.19
2023-01-02T10:31:40.739Z,13.31
2023-01-02T10:34:51.671Z,13.45
2023-01-02T10:37:56.337Z,13.57
2023-01-02T10:40:59.055Z,13.65
2023-01-02T10:44:03.705Z,13.71
2023-01-02T10:47:14.382Z,13.87
2023-01-02T10:50:19.966Z,14.03
2023-01-02T10:53:29.541Z,14.19
2023-01-02T10:56:34.000Z,14.35
2023-01-02T10:59:36.728Z,14.35
2023-01-02T11:02:42.210Z,14.57
2023-01-02T11:05:48.073Z,14.70
2023-01-02T11:08:58.071Z,14.80
2023-01-02T11:12:10.171Z,14.89
2023-01-02T11:15:14.831Z,14.94
2023-01-02T11:18:23.805Z,14.98
2023-01-02T11:21:30.003Z,14.93
2023-01-02T11:24:35.276Z,14.99
2023-01-02T11:27:42.956Z,14.99
2023-01-02T11:30:48.540Z,14.99
2023-01-02T11:33:52.619Z,15.03
2023-01-02T11:37:04.359Z,15.10
2023-01-02T11:40:25.311Z,15.44
2023-01-02T11:43:50.083Z,15.50
2023-01-02T11:46:54.404Z,15.61
2023-01-02T11:49:59.242Z,15.64
2023-01-02T11:53:03.966Z,15.72
2023-01-02T11:56:12.005Z,15.76
2023-01-02T11:59:19.362Z,15.69
2023-01-02T12:02:27.967Z,15.88
2023-01-02T12:05:43.800Z,15.84
2023-01-02T12:09:00.819Z,15.74
2023-01-02T12:12:23.306Z,15.90
2023-01-02T12:15:47.947Z,15.85
2023-01-02T12:19:06.736Z,15.84
2023-01-02T12:22:33.243Z,15.88
2023-01-02T12:25:52.692Z,15.88
2023-01-02T12:29:10.827Z,15.84
2023-01-02T12:32:31.368Z,15.87
2023-01-02T12:36:12.596Z,15.82
2023-01-02T12:39:42.489Z,15.79
2023-01-02T12:43:05.986Z,15.78
2023-01-02T12:46:23.496Z,15.82
2023-01-02T12:49:53.101Z,15.75
2023-01-02T12:53:09.442Z,15.77
2023-01-02T12:56:18.932Z,15.76
2023-01-02T12:59:39.456Z,15.72
2023-01-02T13:03:01.922Z,15.79
2023-01-02T13:06:45.357Z,15.77
2023-01-02T13:09:40.805Z,15.77
2023-01-02T13:12:46.246Z,15.77
2023-01-02T13:15:51.831Z,15.73
2023-01-02T13:19:06.815Z,15.68
2023-01-02T13:22:20.825Z,15.60
2023-01-02T13:25:24.700Z,15.50
2023-01-02T13:28:29.114Z,15.44
2023-01-02T13:31:49.551Z,15.31
2023-01-02T13:34:54.773Z,15.27
2023-01-02T13:38:07.849Z,15.18
2023-01-02T13:41:16.877Z,15.27
2023-01-02T13:44:32.825Z,15.22
2023-01-02T13:47:38.345Z,15.13
2023-01-02T13:50:41.282Z,15.11
2023-01-02T13:53:46.228Z,15.00
2023-01-02T13:57:17.862Z,14.91
2023-01-02T14:00:38.205Z,14.80
2023-01-02T14:03:41.205Z,14.74
2023-01-02T14:06:53.531Z,14.69
2023-01-02T14:10:14.656Z,14.56
2023-01-02T14:13:25.558Z,14.65
2023-01-02T14:16:51.568Z,14.59
2023-01-02T14:20:22.948Z,14.60
2023-01-02T14:23:29.572Z,14.54
2023-01-02T14:26:35.716Z,14.48
2023-01-02T14:29:50.603Z,14.44
2023-01-02T14:32:59.938Z,14.32
2023-01-02T14:36:07.642Z,14.26
2023-01-02T14:39:19.776Z,14.23
2023-01-02T14:42:45.062Z,14.23
2023-01-02T14:45:51.211Z,14.18
2023-01-02T14:49:00.253Z,14.14
2023-01-02T14:52:07.938Z,14.00
2023-01-02T14:55:16.912Z,14.10
2023-01-02T14:58:26.591Z,14.06
2023-01-02T15:01:43.399Z,14.01
2023-01-02T15:04:51.957Z,14.08
2023-01-02T15:07:56.793Z,14.08
2023-01-02T15:11:23.123Z,14.09
2023-01-02T15:14:25.852Z,13.95
2023-01-02T15:17:28.667Z,14.10
2023-01-02T15:20:34.829Z,14.07
2023-01-02T15:23:43.299Z,14.06
2023-01-02T15:26:46.038Z,14.09
2023-01-02T15:29:51.252Z,14.07
2023-01-02T15:32:54.067Z,14.10
2023-01-02T15:36:01.941Z,14.00
2023-01-02T15:39:15.238Z,14.10
2023-01-02T15:42:39.656Z,14.05
2023-01-02T15:45:45.018Z,14.10
2023-01-02T15:48:50.107Z,13.95
2023-01-02T15:51:57.585Z,14.10
2023-01-02T15:55:01.045Z,14.08
2023-01-02T15:58:21.756Z,13.82
2023-01-02T16:01:25.037Z,14.00
2023-01-02T16:04:29.489Z,14.04
2023-01-02T16:07:36.748Z,14.07
2023-01-02T16:10:39.696Z,14.07
2023-01-02T16:14:04.959Z,14.06
2023-01-02T16:17:20.658Z,14.10
2023-01-02T16:20:25.237Z,14.08
2023-01-02T16:23:29.399Z,14.00
2023-01-02T16:26:34.026Z,14.09
2023-01-02T16:29:42.744Z,14.02
2023-01-02T16:32:49.326Z,13.96
2023-01-02T16:36:00.336Z,14.04
2023-01-02T16:39:09.599Z,14.00
2023-01-02T16:42:29.972Z,13.96
2023-01-02T16:45:35.148Z,13.83
2023-01-02T16:48:40.281Z,13.83
2023-01-02T16:51:45.120Z,13.82
2023-01-02T16:54:53.871Z,13.79
2023-01-02T16:57:57.011Z,13.79
2023-01-02T17:00:59.783Z,13.62
2023-01-02T17:04:03.052Z,13.29
2023-01-02T17:07:06.772Z,12.96
2023-01-02T17:10:11.170Z,12.63
2023-01-02T17:13:14.022Z,12.58
2023-01-02T17:16:17.541Z,12.50
2023-01-02T17:19:21.372Z,12.44
2023-01-02T17:22:24.130Z,12.43
2023-01-02T17:25:29.055Z,12.37
2023-01-02T17:28:31.748Z,12.37
2023-01-02T17:31:34.485Z,12.32
2023-01-02T17:34:37.152Z,12.29
2023-01-02T17:37:39.938Z,12.25
2023-01-02T17:40:44.118Z,12.20
2023-01-02T17:44:02.600Z,12.34
2023-01-02T17:50:29.748Z,12.24
2023-01-02T17:53:33.002Z,12.07
2023-01-02T17:56:37.127Z,12.11
2023-01-02T17:59:41.122Z,12.09
2023-01-02T18:02:44.477Z,12.10
2023-01-02T18:05:47.290Z,11.94
2023-01-02T18:08:51.093Z,12.08
2023-01-02T18:11:55.266Z,12.18
2023-01-02T18:15:03.865Z,12.06
2023-01-02T18:18:14.044Z,12.04
2023-01-02T18:21:19.269Z,11.99
2023-01-02T18:24:25.656Z,12.11
2023-01-02T18:27:32.766Z,12.12
2023-01-02T18:30:36.727Z,12.18
2023-01-02T18:33:39.515Z,12.18
2023-01-02T18:36:42.326Z,12.25
2023-01-02T18:39:45.214Z,12.25
2023-01-02T18:42:55.409Z,12.24
2023-01-02T18:46:02.384Z,12.25
2023-01-02T18:49:16.379Z,12.21
2023-01-02T18:52:25.646Z,12.25
2023-01-02T18:55:34.065Z,12.17
2023-01-02T18:58:44.090Z,12.14
2023-01-02T19:01:51.418Z,12.12
2023-01-02T19:04:56.246Z,12.01
2023-01-02T19:08:14.473Z,12.04
2023-01-02T19:11:34.236Z,11.98
2023-01-02T19:14:42.114Z,11.81
2023-01-02T19:17:44.879Z,11.87
2023-01-02T19:20:55.451Z,11.72
2023-01-02T19:23:59.612Z,11.76
2023-01-02T19:27:10.743Z,11.74
2023-01-02T19:30:30.296Z,11.73
2023-01-02T19:33:39.417Z,11.76
2023-01-02T19:36:43.114Z,11.85
2023-01-02T19:39:49.282Z,11.77
2023-01-02T19:42:53.850Z,11.74
2023-01-02T19:45:57.976Z,11.62
2023-01-02T19:49:00.818Z,11.59
2023-01-02T19:52:03.617Z,11.62
2023-01-02T19:55:08.971Z,11.73
2023-01-02T19:58:11.683Z,11.74
2023-01-02T20:01:16.017Z,11.76
2023-01-02T20:04:19.144Z,11.78
2023-01-02T20:07:22.849Z,11.78
2023-01-02T20:10:26.479Z,11.78
2023-01-02T20:13:29.159Z,11.81
2023-01-02T20:16:33.181Z,11.80
2023-01-02T20:19:36.507Z,11.80
2023-01-02T20:22:39.280Z,11.80
2023-01-02T20:25:42.087Z,11.84
2023-01-02T20:28:44.913Z,11.90
2023-01-02T20:31:49.769Z,11.82
2023-01-02T20:34:53.282Z,11.79
2023-01-02T20:37:56.191Z,11.83
2023-01-02T20:40:59.050Z,11.78
2023-01-02T20:44:02.219Z,11.72
2023-01-02T20:47:07.048Z,11.74
2023-01-02T20:50:10.505Z,11.87
2023-01-02T20:53:13.277Z,11.81
2023-01-02T20:56:16.274Z,11.71
2023-01-02T20:59:19.926Z,11.72
2023-01-02T21:02:24.153Z,11.61
2023-01-02T21:05:26.986Z,11.57
2023-01-02T21:08:29.952Z,11.58
2023-01-02T21:11:33.019Z,11.54
2023-01-02T21:14:37.899Z,11.47
2023-01-02T21:17:42.181Z,11.54
2023-01-02T21:20:47.141Z,11.51
2023-01-02T21:23:51.279Z,11.45
2023-01-02T21:26:53.973Z,11.45
2023-01-02T21:29:56.726Z,11.38
2023-01-02T21:33:00.797Z,11.28
2023-01-02T21:36:08.420Z,11.18
2023-01-02T21:39:11.651Z,11.18
2023-01-02T21:42:17.221Z,11.18
2023-01-02T21:45:19.902Z,11.21
2023-01-02T21:48:23.943Z,11.25
2023-01-02T21:51:32.367Z,11.23
2023-01-02T21:54:35.817Z,11.06
2023-01-02T21:58:11.493Z,11.23
2023-01-02T22:01:02.697Z,11.17
2023-01-02T22:04:07.123Z,11.05
2023-01-02T22:07:31.364Z,10.97
2023-01-02T22:10:32.732Z,10.89
2023-01-02T22:13:35.458Z,10.91
2023-01-02T22:16:38.264Z,10.84
2023-01-02T22:19:42.403Z,10.89
2023-01-02T22:22:45.263Z,10.71
2023-01-02T22:25:48.161Z,10.80
2023-01-02T22:28:51.517Z,10.68
2023-01-02T22:31:57.488Z,10.81
2023-01-02T22:35:03.373Z,10.82
2023-01-02T22:38:06.189Z,10.81
2023-01-02T22:41:09.949Z,10.96
2023-01-02T22:44:15.772Z,10.93
2023-01-02T22:47:24.779Z,10.97
2023-01-02T22:50:31.798Z,10.94
2023-01-02T22:53:36.323Z,10.87
2023-01-02T22:56:39.049Z,10.26
2023-01-02T22:59:42.741Z,10.98
2023-01-02T23:02:46.041Z,10.94
2023-01-02T23:05:50.262Z,10.96
2023-01-02T23:08:53.839Z,10.80
2023-01-02T23:11:56.625Z,10.62
2023-01-02T23:14:59.335Z,10.77
2023-01-02T23:18:19.406Z,10.68
2023-01-02T23:21:24.369Z,10.61
2023-01-02T23:24:29.418Z,10.50
2023-01-02T23:27:33.746Z,10.43
2023-01-02T23:30:36.691Z,10.28
2023-01-02T23:33:39.462Z,10.46
2023-01-02T23:36:44.387Z,10.37
2023-01-02T23:39:47.126Z,10.52
2023-01-02T23:42:49.801Z,10.55
2023-01-02T23:45:52.561Z,10.32
2023-01-02T23:48:55.358Z,10.52
2023-01-02T23:51:59.573Z,10.49
2023-01-02T23:55:02.306Z,10.44
2023-01-02T23:58:05.154Z,10.41
